createdAt,value
2022-12-22T00:02:37.337Z,94.86
2022-12-22T00:05:43.757Z,94.84
2022-12-22T00:08:48.946Z,94.81
2022-12-22T00:11:56.158Z,94.83
2022-12-22T00:16:23.831Z,94.79
2022-12-22T00:20:39.389Z,94.80
2022-12-22T00:23:44.773Z,94.78
2022-12-22T00:31:35.676Z,94.78
2022-12-22T00:36:04.739Z,94.62
2022-12-22T00:39:11.429Z,94.58
2022-12-22T00:42:19.992Z,94.56
2022-12-22T00:45:25.774Z,94.51
2022-12-22T00:48:41.929Z,94.40
2022-12-22T00:53:28.845Z,94.30
2022-12-22T00:56:46.766Z,94.20
2022-12-22T01:01:02.820Z,94.10
2022-12-22T01:05:21.466Z,94.15
2022-12-22T01:08:55.605Z,94.21
2022-12-22T01:13:31.644Z,94.12
2022-12-22T01:16:35.903Z,94.27
2022-12-22T01:20:06.827Z,94.20
2022-12-22T01:23:10.790Z,94.14
2022-12-22T01:26:14.726Z,94.22
2022-12-22T01:29:48.670Z,94.32
2022-12-22T01:32:52.408Z,94.37
2022-12-22T01:35:56.555Z,94.34
2022-12-22T01:39:00.892Z,94.40
2022-12-22T01:43:39.945Z,94.63
2022-12-22T01:46:50.104Z,94.66
2022-12-22T01:49:59.845Z,94.68
2022-12-22T01:53:05.008Z,94.70
2022-12-22T01:56:10.191Z,94.73
2022-12-22T01:59:18.698Z,94.81
2022-12-22T02:02:25.971Z,94.81
2022-12-22T02:05:34.712Z,94.93
2022-12-22T02:10:24.458Z,94.96
2022-12-22T02:14:58.768Z,94.92
2022-12-22T02:19:26.931Z,94.81
2022-12-22T02:23:01.983Z,94.79
2022-12-22T02:26:20.495Z,94.86
2022-12-22T02:29:26.530Z,94.93
2022-12-22T02:32:33.355Z,95.10
2022-12-22T02:35:38.715Z,95.10
2022-12-22T02:39:00.069Z,95.14
2022-12-22T02:42:21.671Z,95.23
2022-12-22T02:45:40.103Z,95.20
2022-12-22T02:48:54.848Z,95.12
2022-12-22T02:52:07.653Z,95.25
2022-12-22T02:55:12.967Z,95.24
2022-12-22T02:58:19.050Z,95.18
2022-12-22T03:01:25.628Z,95.21
2022-12-22T03:04:30.867Z,95.26
2022-12-22T03:07:35.841Z,95.19
2022-12-22T03:10:41.587Z,95.14
2022-12-22T03:13:55.051Z,95.11
2022-12-22T03:18:30.597Z,95.15
2022-12-22T03:21:35.382Z,95.14
2022-12-22T03:24:39.521Z,95.10
2022-12-22T03:27:44.602Z,95.18
2022-12-22T03:31:48.681Z,95.25
2022-12-22T03:34:35.679Z,95.35
2022-12-22T03:37:25.589Z,95.26
2022-12-22T03:40:12.159Z,95.25
2022-12-22T03:43:18.164Z,95.30
2022-12-22T03:48:26.719Z,95.24
2022-12-22T03:51:13.396Z,95.33
2022-12-22T03:54:01.965Z,95.30
2022-12-22T03:56:50.353Z,95.29
2022-12-22T03:59:36.902Z,95.30
2022-12-22T04:03:49.732Z,95.21
2022-12-22T04:06:36.270Z,95.18
2022-12-22T04:09:23.747Z,95.08
2022-12-22T04:12:29.690Z,95.04
2022-12-22T04:15:16.686Z,95.02
2022-12-22T04:18:04.889Z,95.00
2022-12-22T04:20:51.458Z,94.95
2022-12-22T04:23:38.779Z,95.05
2022-12-22T04:26:27.313Z,95.08
2022-12-22T04:30:51.237Z,95.18
2022-12-22T04:34:47.980Z,95.12
2022-12-22T04:38:43.939Z,95.11
2022-12-22T04:41:30.582Z,95.10
2022-12-22T04:44:17.541Z,95.05
2022-12-22T04:47:04.314Z,94.98
2022-12-22T04:49:51.410Z,94.98
2022-12-22T04:54:00.672Z,95.01
2022-12-22T04:57:57.810Z,95.06
2022-12-22T05:01:56.652Z,95.02
2022-12-22T05:05:54.903Z,94.98
2022-12-22T05:09:49.661Z,94.85
2022-12-22T05:12:55.208Z,94.83
2022-12-22T05:15:41.421Z,94.76
2022-12-22T05:18:27.720Z,94.79
2022-12-22T05:21:17.480Z,94.79
2022-12-22T05:24:04.496Z,94.83
2022-12-22T05:26:50.927Z,94.87
2022-12-22T05:29:38.575Z,94.85
2022-12-22T05:32:27.802Z,94.80
2022-12-22T05:35:14.660Z,94.84
2022-12-22T05:38:02.329Z,94.77
2022-12-22T05:40:49.930Z,94.79
2022-12-22T05:43:37.102Z,94.81
2022-12-22T05:47:02.336Z,94.93
2022-12-22T05:49:48.841Z,94.93
2022-12-22T05:52:35.640Z,94.88
2022-12-22T05:55:22.837Z,94.79
2022-12-22T05:58:11.444Z,94.85
2022-12-22T06:00:59.887Z,94.90
2022-12-22T06:03:46.437Z,94.98
2022-12-22T06:06:36.066Z,95.04
2022-12-22T06:09:22.896Z,94.98
2022-12-22T06:12:12.361Z,94.96
2022-12-22T06:15:00.562Z,94.93
2022-12-22T06:17:47.579Z,94.77
2022-12-22T06:20:34.434Z,94.83
2022-12-22T06:23:22.556Z,94.79
2022-12-22T06:26:19.944Z,94.78
2022-12-22T06:29:11.660Z,94.80
2022-12-22T06:32:03.977Z,94.76
2022-12-22T06:35:00.962Z,94.68
2022-12-22T06:37:47.472Z,94.66
2022-12-22T06:40:36.647Z,94.60
2022-12-22T06:43:25.423Z,94.53
2022-12-22T06:49:15.552Z,94.60
2022-12-22T06:52:20.224Z,94.51
2022-12-22T06:56:53.420Z,94.57
2022-12-22T06:59:40.074Z,94.62
2022-12-22T07:02:30.407Z,94.45
2022-12-22T07:05:17.771Z,94.34
2022-12-22T07:08:08.877Z,94.36
2022-12-22T07:10:59.872Z,94.40
2022-12-22T07:13:51.307Z,94.46
2022-12-22T07:16:39.072Z,94.42
2022-12-22T07:19:25.850Z,94.37
2022-12-22T07:23:03.080Z,94.39
2022-12-22T07:37:11.945Z,94.06
2022-12-22T07:40:06.357Z,94.07
2022-12-22T07:43:02.084Z,93.95
2022-12-22T07:49:17.478Z,93.94
2022-12-22T07:52:09.695Z,93.91
2022-12-22T07:54:57.405Z,93.93
2022-12-22T07:57:50.439Z,93.92
2022-12-22T08:02:02.265Z,94.04
2022-12-22T08:04:49.097Z,93.86
2022-12-22T08:07:36.617Z,93.92
2022-12-22T08:10:23.865Z,93.85
2022-12-22T08:13:10.800Z,93.78
2022-12-22T08:16:05.461Z,93.67
2022-12-22T08:18:55.247Z,93.62
2022-12-22T08:21:45.385Z,93.54
2022-12-22T08:24:51.388Z,93.23
2022-12-22T08:27:57.835Z,93.13
2022-12-22T08:30:59.455Z,93.10
2022-12-22T08:33:53.734Z,92.96
2022-12-22T09:02:47.873Z,89.78
2022-12-22T09:16:49.944Z,88.93
2022-12-22T09:20:09.607Z,89.30
2022-12-22T09:22:57.763Z,89.68
2022-12-22T09:25:45.964Z,90.04
2022-12-22T09:28:57.017Z,90.60
2022-12-22T09:31:51.139Z,90.89
2022-12-22T09:34:37.910Z,90.91
2022-12-22T09:41:32.724Z,90.77
2022-12-22T10:01:55.463Z,88.92
2022-12-22T10:05:42.884Z,88.99
2022-12-22T10:08:49.932Z,89.14
2022-12-22T10:11:50.303Z,89.46
2022-12-22T10:14:56.188Z,89.23
2022-12-22T10:29:12.856Z,88.39
2022-12-22T10:42:39.254Z,88.67
2022-12-22T11:01:05.229Z,89.00
2022-12-22T11:16:19.850Z,89.15
2022-12-22T11:19:47.937Z,89.44
2022-12-22T11:22:42.648Z,89.37
2022-12-22T11:25:42.503Z,89.27
2022-12-22T11:29:02.307Z,89.46
2022-12-22T11:32:08.536Z,89.36
2022-12-22T11:35:37.707Z,89.35
2022-12-22T11:39:03.979Z,88.83
2022-12-22T11:42:42.834Z,88.97
2022-12-22T12:00:09.531Z,83.23
2022-12-22T12:14:24.464Z,80.84
2022-12-22T12:17:43.332Z,81.18
2022-12-22T12:45:55.511Z,82.99
2022-12-22T12:59:58.775Z,81.10
2022-12-22T13:03:02.165Z,80.78
2022-12-22T13:18:02.994Z,84.84
2022-12-22T13:31:50.769Z,87.34
2022-12-22T13:38:33.370Z,88.55
2022-12-22T13:41:27.109Z,88.91
2022-12-22T13:44:30.264Z,88.96
2022-12-22T13:47:27.576Z,89.27
2022-12-22T13:50:27.172Z,89.29
2022-12-22T14:04:16.943Z,89.22
2022-12-22T14:07:12.608Z,89.44
2022-12-22T14:10:03.295Z,89.41
2022-12-22T14:12:51.172Z,89.48
2022-12-22T14:15:47.775Z,89.42
2022-12-22T14:18:36.860Z,89.56
2022-12-22T14:21:25.709Z,89.49
2022-12-22T14:24:38.054Z,89.60
2022-12-22T14:27:44.352Z,89.67
2022-12-22T14:30:44.476Z,89.80
2022-12-22T14:33:34.387Z,89.90
2022-12-22T14:36:24.360Z,90.09
2022-12-22T14:40:34.298Z,90.31
2022-12-22T14:43:26.508Z,90.44
2022-12-22T14:46:13.794Z,90.57
2022-12-22T14:49:01.205Z,90.56
2022-12-22T14:52:06.664Z,90.49
2022-12-22T14:54:56.584Z,90.56
2022-12-22T14:58:10.773Z,90.59
2022-12-22T15:08:54.808Z,90.84
2022-12-22T15:12:18.201Z,90.87
2022-12-22T15:26:03.701Z,90.20
2022-12-22T15:28:50.433Z,90.24
2022-12-22T15:31:39.003Z,90.21
2022-12-22T15:34:32.456Z,90.36
2022-12-22T15:37:21.070Z,90.44
2022-12-22T15:57:15.543Z,90.56
2022-12-22T16:00:03.111Z,90.72
2022-12-22T16:02:52.101Z,90.77
2022-12-22T16:05:55.703Z,90.77
2022-12-22T16:08:50.060Z,90.84
2022-12-22T16:11:39.152Z,90.88
2022-12-22T16:14:26.855Z,90.99
2022-12-22T16:17:28.846Z,91.01
2022-12-22T16:20:15.440Z,91.09
2022-12-22T16:23:17.398Z,91.08
2022-12-22T16:26:08.836Z,91.14
2022-12-22T16:31:02.123Z,91.35
2022-12-22T16:33:49.001Z,91.46
2022-12-22T16:36:37.095Z,91.34
2022-12-22T16:39:24.307Z,91.42
2022-12-22T16:45:25.846Z,91.55
2022-12-22T16:48:57.733Z,91.49
2022-12-22T16:51:49.826Z,91.46
2022-12-22T16:54:35.201Z,91.57
2022-12-22T16:57:23.201Z,91.60
2022-12-22T17:00:17.830Z,91.75
2022-12-22T17:03:16.267Z,91.68
2022-12-22T17:06:04.585Z,91.72
2022-12-22T17:08:51.100Z,91.68
2022-12-22T17:11:37.358Z,91.86
2022-12-22T17:14:36.528Z,91.81
2022-12-22T17:17:30.872Z,91.85
2022-12-22T17:20:21.505Z,91.85
2022-12-22T17:23:06.304Z,91.92
2022-12-22T17:25:51.665Z,91.85
2022-12-22T17:28:38.255Z,91.86
2022-12-22T17:31:23.741Z,92.01
2022-12-22T17:34:14.355Z,91.99
2022-12-22T17:36:59.307Z,92.05
2022-12-22T17:39:49.024Z,91.96
2022-12-22T17:42:35.557Z,91.89
2022-12-22T17:45:22.362Z,92.00
2022-12-22T17:48:08.569Z,91.83
2022-12-22T17:51:03.884Z,91.80
2022-12-22T17:53:58.364Z,91.95
2022-12-22T17:56:44.859Z,92.01
2022-12-22T17:59:34.299Z,92.23
2022-12-22T18:13:36.568Z,92.02
2022-12-22T18:16:44.262Z,92.11
2022-12-22T18:19:35.319Z,92.09
2022-12-22T18:22:28.560Z,92.12
2022-12-22T18:25:28.109Z,92.20
2022-12-22T18:28:17.655Z,92.37
2022-12-22T18:31:04.287Z,92.33
2022-12-22T18:33:57.671Z,92.25
2022-12-22T18:36:46.196Z,92.19
2022-12-22T18:39:34.095Z,92.14
2022-12-22T18:42:23.921Z,92.18
2022-12-22T18:45:15.392Z,92.31
2022-12-22T18:48:02.590Z,92.24
2022-12-22T18:50:50.670Z,92.11
2022-12-22T18:53:47.934Z,92.10
2022-12-22T18:56:36.433Z,92.17
2022-12-22T18:59:36.445Z,92.27
2022-12-22T19:02:30.964Z,92.19
2022-12-22T19:05:25.709Z,92.24
2022-12-22T19:08:23.625Z,92.24
2022-12-22T19:11:13.127Z,92.27
2022-12-22T19:14:03.042Z,92.26
2022-12-22T19:16:51.693Z,92.36
2022-12-22T19:19:39.446Z,92.29
2022-12-22T19:22:28.135Z,92.20
2022-12-22T19:25:20.913Z,92.36
2022-12-22T19:28:16.308Z,92.42
2022-12-22T19:31:07.613Z,92.34
2022-12-22T19:33:56.287Z,92.30
2022-12-22T19:36:43.956Z,92.28
2022-12-22T19:39:30.924Z,92.29
2022-12-22T19:42:22.207Z,92.41
2022-12-22T19:45:24.621Z,92.43
2022-12-22T19:48:22.545Z,92.32
2022-12-22T19:51:16.021Z,92.47
2022-12-22T19:54:04.646Z,92.43
2022-12-22T19:56:54.184Z,92.40
2022-12-22T19:59:45.783Z,92.44
2022-12-22T20:02:33.823Z,92.43
2022-12-22T20:05:24.847Z,92.43
2022-12-22T20:08:12.492Z,92.36
2022-12-22T20:11:00.315Z,92.39
2022-12-22T20:13:49.389Z,92.25
2022-12-22T20:16:37.509Z,92.31
2022-12-22T20:19:24.958Z,92.25
2022-12-22T20:22:39.689Z,92.30
2022-12-22T20:25:30.148Z,92.25
2022-12-22T20:28:31.485Z,92.24
2022-12-22T20:31:23.002Z,92.20
2022-12-22T20:34:12.357Z,92.14
2022-12-22T20:37:01.716Z,91.95
2022-12-22T20:39:58.209Z,91.91
2022-12-22T20:42:46.425Z,91.87
2022-12-22T20:45:34.065Z,91.83
2022-12-22T20:49:05.212Z,91.83
2022-12-22T20:52:19.433Z,91.82
2022-12-22T20:55:09.913Z,91.76
2022-12-22T20:58:07.421Z,91.73
2022-12-22T21:01:04.397Z,91.62
2022-12-22T21:03:59.772Z,91.51
2022-12-22T21:06:58.686Z,91.48
2022-12-22T21:09:46.726Z,91.22
2022-12-22T21:12:39.948Z,91.06
2022-12-22T21:15:35.269Z,91.05
2022-12-22T21:18:29.245Z,91.08
2022-12-22T21:21:22.172Z,90.94
2022-12-22T21:24:14.156Z,90.77
2022-12-22T21:27:01.455Z,90.61
2022-12-22T21:29:51.418Z,90.61
2022-12-22T21:32:41.302Z,90.62
2022-12-22T21:35:33.980Z,90.56
2022-12-22T21:38:24.155Z,90.55
2022-12-22T21:41:10.173Z,90.42
2022-12-22T21:43:56.905Z,90.44
2022-12-22T21:46:46.424Z,90.47
2022-12-22T21:49:34.179Z,90.52
2022-12-22T21:52:20.535Z,90.42
2022-12-22T21:55:09.942Z,90.40
2022-12-22T21:57:57.944Z,90.36
2022-12-22T22:00:48.263Z,90.54
2022-12-22T22:03:34.843Z,90.83
2022-12-22T22:06:40.179Z,91.34
2022-12-22T22:09:26.542Z,91.64
2022-12-22T22:12:31.982Z,91.93
2022-12-22T22:15:18.696Z,92.40
2022-12-22T22:18:07.594Z,92.59
2022-12-22T22:20:54.327Z,92.78
2022-12-22T22:23:41.851Z,93.06
2022-12-22T22:26:28.345Z,93.16
2022-12-22T22:29:14.699Z,93.53
2022-12-22T22:32:01.583Z,93.65
2022-12-22T22:34:48.270Z,93.78
2022-12-22T22:37:35.062Z,93.80
2022-12-22T22:40:24.369Z,93.92
2022-12-22T22:43:11.161Z,94.12
2022-12-22T22:45:57.586Z,94.26
2022-12-22T22:48:44.415Z,94.31
2022-12-22T22:51:31.365Z,94.39
2022-12-22T22:54:19.763Z,94.54
2022-12-22T22:57:07.241Z,94.68
2022-12-22T22:59:58.486Z,94.72
2022-12-22T23:02:45.663Z,94.85
2022-12-22T23:05:33.144Z,94.81
2022-12-22T23:19:41.891Z,94.59
2022-12-22T23:33:45.819Z,94.23
2022-12-22T23:36:48.136Z,94.42
